Terminal Aerodrome Forecast
Issued by NWS

Home | Current Version | Previous Version | Graphics & Text | Print | Product List | Glossary On
Versions: 1 2 3 4 5 6 7 8 9 10 11 12 13 14 15 16 17
000
FTUS43 KBIS 220532
TAFMOT
TAF
KMOT 220532Z 2206/2306 24005KT 5SM BR SCT008 OVC011
      TEMPO 2206/2210 2SM BR SCT003 OVC008
     FM221000 28006KT 5SM BR OVC005
     FM221500 28010KT P6SM BKN010
     FM230300 25009KT P6SM OVC010=

USA.gov is the U.S. government's official web portal to all federal, state and local government web resources and services.